sensor_id;sensor_type;location;lat;lon;timestamp;temperature;humidity
65034;DHT22;51601;51.356;12.458;2022-12-18T00:01:27;-7.90;99.90
65034;DHT22;51601;51.356;12.458;2022-12-18T00:05:47;-8.00;99.90
65034;DHT22;51601;51.356;12.458;2022-12-18T00:10:01;-8.00;99.90
65034;DHT22;51601;51.356;12.458;2022-12-18T00:14:15;-8.00;99.90
65034;DHT22;51601;51.356;12.458;2022-12-18T00:18:31;-8.00;99.90
65034;DHT22;51601;51.356;12.458;2022-12-18T00:22:45;-8.00;99.90
65034;DHT22;51601;51.356;12.458;2022-12-18T00:26:59;-8.00;99.90
65034;DHT22;51601;51.356;12.458;2022-12-18T00:31:15;-8.00;99.90
65034;DHT22;51601;51.356;12.458;2022-12-18T00:35:31;-8.10;99.90
65034;DHT22;51601;51.356;12.458;2022-12-18T00:39:45;-8.00;99.90
65034;DHT22;51601;51.356;12.458;2022-12-18T00:44:01;-8.10;99.90
65034;DHT22;51601;51.356;12.458;2022-12-18T00:48:15;-8.10;99.90
65034;DHT22;51601;51.356;12.458;2022-12-18T00:52:31;-8.10;99.90
65034;DHT22;51601;51.356;12.458;2022-12-18T00:56:44;-8.10;99.90
65034;DHT22;51601;51.356;12.458;2022-12-18T01:01:04;-8.10;99.90
65034;DHT22;51601;51.356;12.458;2022-12-18T01:05:19;-8.20;99.90
65034;DHT22;51601;51.356;12.458;2022-12-18T01:09:34;-8.20;99.90
65034;DHT22;51601;51.356;12.458;2022-12-18T01:13:52;-8.20;99.90
65034;DHT22;51601;51.356;12.458;2022-12-18T01:18:07;-8.20;99.90
65034;DHT22;51601;51.356;12.458;2022-12-18T01:22:22;-8.20;99.90
65034;DHT22;51601;51.356;12.458;2022-12-18T01:26:37;-8.20;99.90
65034;DHT22;51601;51.356;12.458;2022-12-18T01:30:52;-8.10;99.90
65034;DHT22;51601;51.356;12.458;2022-12-18T01:35:07;-8.20;99.90
65034;DHT22;51601;51.356;12.458;2022-12-18T01:39:21;-8.20;99.90
65034;DHT22;51601;51.356;12.458;2022-12-18T01:43:45;-8.10;99.90
65034;DHT22;51601;51.356;12.458;2022-12-18T01:48:01;-8.10;99.90
65034;DHT22;51601;51.356;12.458;2022-12-18T01:52:17;-8.00;99.90
65034;DHT22;51601;51.356;12.458;2022-12-18T01:56:32;-8.00;99.90
65034;DHT22;51601;51.356;12.458;2022-12-18T02:00:47;-7.90;99.90
65034;DHT22;51601;51.356;12.458;2022-12-18T02:05:02;-7.80;99.90
65034;DHT22;51601;51.356;12.458;2022-12-18T02:09:20;-7.90;99.90
65034;DHT22;51601;51.356;12.458;2022-12-18T02:13:42;-7.90;99.90
65034;DHT22;51601;51.356;12.458;2022-12-18T02:18:05;-7.90;99.90
65034;DHT22;51601;51.356;12.458;2022-12-18T02:22:27;-7.90;99.90
65034;DHT22;51601;51.356;12.458;2022-12-18T02:26:46;-8.00;99.90
65034;DHT22;51601;51.356;12.458;2022-12-18T02:31:04;-7.90;99.90
65034;DHT22;51601;51.356;12.458;2022-12-18T02:35:22;-7.90;99.90
65034;DHT22;51601;51.356;12.458;2022-12-18T02:39:42;-8.00;99.90
65034;DHT22;51601;51.356;12.458;2022-12-18T02:44:07;-7.90;99.90
65034;DHT22;51601;51.356;12.458;2022-12-18T02:48:24;-7.90;99.90
65034;DHT22;51601;51.356;12.458;2022-12-18T02:52:47;-7.90;99.90
65034;DHT22;51601;51.356;12.458;2022-12-18T02:57:10;-7.90;99.90
65034;DHT22;51601;51.356;12.458;2022-12-18T03:01:33;-7.90;99.90
65034;DHT22;51601;51.356;12.458;2022-12-18T03:05:51;-8.00;99.90
65034;DHT22;51601;51.356;12.458;2022-12-18T03:10:09;-8.00;99.90
65034;DHT22;51601;51.356;12.458;2022-12-18T03:14:26;-8.00;99.90
65034;DHT22;51601;51.356;12.458;2022-12-18T03:18:47;-8.10;99.90
65034;DHT22;51601;51.356;12.458;2022-12-18T03:23:06;-8.10;99.90
65034;DHT22;51601;51.356;12.458;2022-12-18T03:27:22;-8.20;99.90
65034;DHT22;51601;51.356;12.458;2022-12-18T03:31:42;-8.20;99.90
65034;DHT22;51601;51.356;12.458;2022-12-18T03:36:00;-8.30;99.90
65034;DHT22;51601;51.356;12.458;2022-12-18T03:40:15;-8.20;99.90
65034;DHT22;51601;51.356;12.458;2022-12-18T03:44:32;-8.20;99.90
65034;DHT22;51601;51.356;12.458;2022-12-18T03:48:55;-8.20;99.90
65034;DHT22;51601;51.356;12.458;2022-12-18T03:53:25;-8.30;99.90
65034;DHT22;51601;51.356;12.458;2022-12-18T03:57:44;-8.30;99.90
65034;DHT22;51601;51.356;12.458;2022-12-18T04:02:00;-8.30;99.90
65034;DHT22;51601;51.356;12.458;2022-12-18T04:06:16;-8.40;99.90
65034;DHT22;51601;51.356;12.458;2022-12-18T04:10:35;-8.40;99.90
65034;DHT22;51601;51.356;12.458;2022-12-18T04:14:49;-8.40;99.90
65034;DHT22;51601;51.356;12.458;2022-12-18T04:19:03;-8.50;99.90
65034;DHT22;51601;51.356;12.458;2022-12-18T04:23:23;-8.50;99.90
65034;DHT22;51601;51.356;12.458;2022-12-18T04:27:42;-8.50;99.90
65034;DHT22;51601;51.356;12.458;2022-12-18T04:31:57;-8.50;99.90
65034;DHT22;51601;51.356;12.458;2022-12-18T04:36:13;-8.50;99.90
65034;DHT22;51601;51.356;12.458;2022-12-18T04:40:29;-8.50;99.90
65034;DHT22;51601;51.356;12.458;2022-12-18T04:44:44;-8.50;99.90
65034;DHT22;51601;51.356;12.458;2022-12-18T04:48:58;-8.50;99.90
65034;DHT22;51601;51.356;12.458;2022-12-18T04:53:12;-8.50;99.90
65034;DHT22;51601;51.356;12.458;2022-12-18T04:57:26;-8.40;99.90
65034;DHT22;51601;51.356;12.458;2022-12-18T05:01:41;-8.40;99.90
65034;DHT22;51601;51.356;12.458;2022-12-18T05:05:56;-8.40;99.90
65034;DHT22;51601;51.356;12.458;2022-12-18T05:10:09;-8.50;99.90
65034;DHT22;51601;51.356;12.458;2022-12-18T05:14:23;-8.50;99.90
65034;DHT22;51601;51.356;12.458;2022-12-18T05:18:39;-8.50;99.90
65034;DHT22;51601;51.356;12.458;2022-12-18T05:22:53;-8.40;99.90
65034;DHT22;51601;51.356;12.458;2022-12-18T05:27:07;-8.40;99.90
65034;DHT22;51601;51.356;12.458;2022-12-18T05:31:21;-8.50;99.90
65034;DHT22;51601;51.356;12.458;2022-12-18T05:35:36;-8.50;99.90
65034;DHT22;51601;51.356;12.458;2022-12-18T05:39:50;-8.40;99.90
65034;DHT22;51601;51.356;12.458;2022-12-18T05:44:04;-8.50;99.90
65034;DHT22;51601;51.356;12.458;2022-12-18T05:48:18;-8.50;99.90
65034;DHT22;51601;51.356;12.458;2022-12-18T05:52:34;-8.60;99.90
65034;DHT22;51601;51.356;12.458;2022-12-18T05:56:49;-8.60;99.90
65034;DHT22;51601;51.356;12.458;2022-12-18T06:01:08;-8.60;99.90
65034;DHT22;51601;51.356;12.458;2022-12-18T06:05:22;-8.60;99.90
65034;DHT22;51601;51.356;12.458;2022-12-18T06:09:37;-8.60;99.90
65034;DHT22;51601;51.356;12.458;2022-12-18T06:13:52;-8.60;99.90
65034;DHT22;51601;51.356;12.458;2022-12-18T06:18:10;-8.70;99.90
65034;DHT22;51601;51.356;12.458;2022-12-18T06:22:24;-8.70;99.90
65034;DHT22;51601;51.356;12.458;2022-12-18T06:26:39;-8.70;99.90
65034;DHT22;51601;51.356;12.458;2022-12-18T06:30:53;-8.80;99.90
65034;DHT22;51601;51.356;12.458;2022-12-18T06:35:07;-8.80;99.90
65034;DHT22;51601;51.356;12.458;2022-12-18T06:39:21;-8.80;99.90
65034;DHT22;51601;51.356;12.458;2022-12-18T06:43:37;-8.90;99.90
65034;DHT22;51601;51.356;12.458;2022-12-18T06:47:52;-8.90;99.90
65034;DHT22;51601;51.356;12.458;2022-12-18T06:52:05;-8.90;99.90
65034;DHT22;51601;51.356;12.458;2022-12-18T06:56:19;-9.00;99.90
65034;DHT22;51601;51.356;12.458;2022-12-18T07:00:34;-9.10;99.90
65034;DHT22;51601;51.356;12.458;2022-12-18T07:04:48;-9.10;99.90
65034;DHT22;51601;51.356;12.458;2022-12-18T07:09:05;-9.20;99.90
65034;DHT22;51601;51.356;12.458;2022-12-18T07:13:19;-9.20;99.90
65034;DHT22;51601;51.356;12.458;2022-12-18T07:17:34;-9.20;99.90
65034;DHT22;51601;51.356;12.458;2022-12-18T07:21:49;-9.20;99.90
65034;DHT22;51601;51.356;12.458;2022-12-18T07:26:04;-9.20;99.90
65034;DHT22;51601;51.356;12.458;2022-12-18T07:30:18;-9.20;99.90
65034;DHT22;51601;51.356;12.458;2022-12-18T07:34:34;-9.20;99.90
65034;DHT22;51601;51.356;12.458;2022-12-18T07:38:49;-9.20;99.90
65034;DHT22;51601;51.356;12.458;2022-12-18T07:43:03;-9.20;99.90
65034;DHT22;51601;51.356;12.458;2022-12-18T07:47:17;-9.20;99.90
65034;DHT22;51601;51.356;12.458;2022-12-18T07:51:33;-9.10;99.90
65034;DHT22;51601;51.356;12.458;2022-12-18T07:55:47;-9.10;99.90
65034;DHT22;51601;51.356;12.458;2022-12-18T08:00:21;-9.00;99.90
65034;DHT22;51601;51.356;12.458;2022-12-18T08:04:35;-9.00;99.90
65034;DHT22;51601;51.356;12.458;2022-12-18T08:08:51;-9.00;99.90
65034;DHT22;51601;51.356;12.458;2022-12-18T08:13:04;-9.00;99.90
65034;DHT22;51601;51.356;12.458;2022-12-18T08:17:19;-8.90;99.90
65034;DHT22;51601;51.356;12.458;2022-12-18T08:21:33;-8.90;99.90
65034;DHT22;51601;51.356;12.458;2022-12-18T08:25:48;-8.80;99.90
65034;DHT22;51601;51.356;12.458;2022-12-18T08:30:03;-8.60;99.90
65034;DHT22;51601;51.356;12.458;2022-12-18T08:34:18;-8.40;99.90
65034;DHT22;51601;51.356;12.458;2022-12-18T08:38:33;-8.20;99.90
65034;DHT22;51601;51.356;12.458;2022-12-18T08:42:48;-8.10;99.90
65034;DHT22;51601;51.356;12.458;2022-12-18T08:47:19;-8.00;99.90
65034;DHT22;51601;51.356;12.458;2022-12-18T08:51:33;-7.90;99.90
65034;DHT22;51601;51.356;12.458;2022-12-18T08:55:48;-7.60;99.90
65034;DHT22;51601;51.356;12.458;2022-12-18T09:00:04;-7.20;99.90
65034;DHT22;51601;51.356;12.458;2022-12-18T09:04:18;-6.80;99.90
65034;DHT22;51601;51.356;12.458;2022-12-18T09:08:31;-6.50;99.90
65034;DHT22;51601;51.356;12.458;2022-12-18T09:12:49;-6.10;99.90
65034;DHT22;51601;51.356;12.458;2022-12-18T09:17:04;-5.80;99.90
65034;DHT22;51601;51.356;12.458;2022-12-18T09:21:20;-5.60;99.90
65034;DHT22;51601;51.356;12.458;2022-12-18T09:25:34;-5.40;99.90
65034;DHT22;51601;51.356;12.458;2022-12-18T09:29:49;-5.30;99.90
65034;DHT22;51601;51.356;12.458;2022-12-18T09:34:04;-5.30;99.90
65034;DHT22;51601;51.356;12.458;2022-12-18T09:38:19;-5.20;99.90
65034;DHT22;51601;51.356;12.458;2022-12-18T09:42:35;-5.20;99.90
65034;DHT22;51601;51.356;12.458;2022-12-18T09:46:54;-5.30;99.90
65034;DHT22;51601;51.356;12.458;2022-12-18T09:51:15;-5.30;99.90
65034;DHT22;51601;51.356;12.458;2022-12-18T09:55:32;-5.30;99.90
65034;DHT22;51601;51.356;12.458;2022-12-18T09:59:53;-5.30;99.90
65034;DHT22;51601;51.356;12.458;2022-12-18T10:04:08;-5.30;99.90
65034;DHT22;51601;51.356;12.458;2022-12-18T10:08:29;-5.20;99.90
65034;DHT22;51601;51.356;12.458;2022-12-18T10:12:53;-5.00;99.90
65034;DHT22;51601;51.356;12.458;2022-12-18T10:17:23;-4.90;99.90
65034;DHT22;51601;51.356;12.458;2022-12-18T10:21:45;-4.80;99.90
65034;DHT22;51601;51.356;12.458;2022-12-18T10:26:05;-4.70;99.90
65034;DHT22;51601;51.356;12.458;2022-12-18T10:30:21;-4.60;99.90
65034;DHT22;51601;51.356;12.458;2022-12-18T10:34:35;-4.60;99.90
65034;DHT22;51601;51.356;12.458;2022-12-18T10:38:49;-4.60;99.80
65034;DHT22;51601;51.356;12.458;2022-12-18T10:43:09;-4.50;99.90
65034;DHT22;51601;51.356;12.458;2022-12-18T10:47:24;-4.40;99.90
65034;DHT22;51601;51.356;12.458;2022-12-18T10:51:38;-4.30;99.90
65034;DHT22;51601;51.356;12.458;2022-12-18T10:55:54;-4.20;99.90
65034;DHT22;51601;51.356;12.458;2022-12-18T11:00:26;-4.10;99.90
65034;DHT22;51601;51.356;12.458;2022-12-18T11:04:51;-4.00;99.90
65034;DHT22;51601;51.356;12.458;2022-12-18T11:09:18;-3.90;99.90
65034;DHT22;51601;51.356;12.458;2022-12-18T11:13:33;-3.80;99.90
65034;DHT22;51601;51.356;12.458;2022-12-18T11:17:50;-3.60;99.90
65034;DHT22;51601;51.356;12.458;2022-12-18T11:22:19;-3.40;99.90
65034;DHT22;51601;51.356;12.458;2022-12-18T11:26:34;-3.20;99.90
65034;DHT22;51601;51.356;12.458;2022-12-18T11:30:49;-3.10;99.90
65034;DHT22;51601;51.356;12.458;2022-12-18T11:35:29;-3.00;99.90
65034;DHT22;51601;51.356;12.458;2022-12-18T11:39:49;-3.00;99.50
65034;DHT22;51601;51.356;12.458;2022-12-18T11:44:06;-2.90;99.50
65034;DHT22;51601;51.356;12.458;2022-12-18T11:48:27;-2.90;99.10
65034;DHT22;51601;51.356;12.458;2022-12-18T11:52:44;-2.80;99.20
65034;DHT22;51601;51.356;12.458;2022-12-18T11:57:06;-2.70;98.50
65034;DHT22;51601;51.356;12.458;2022-12-18T12:01:39;-2.50;98.30
65034;DHT22;51601;51.356;12.458;2022-12-18T12:06:06;-2.40;97.70
65034;DHT22;51601;51.356;12.458;2022-12-18T12:10:33;-2.30;97.20
65034;DHT22;51601;51.356;12.458;2022-12-18T12:14:54;-2.40;96.20
65034;DHT22;51601;51.356;12.458;2022-12-18T12:19:24;-2.40;95.60
65034;DHT22;51601;51.356;12.458;2022-12-18T12:23:47;-2.40;94.80
65034;DHT22;51601;51.356;12.458;2022-12-18T12:28:15;-2.50;93.50
65034;DHT22;51601;51.356;12.458;2022-12-18T12:32:51;-2.50;92.60
65034;DHT22;51601;51.356;12.458;2022-12-18T12:37:34;-2.50;91.80
65034;DHT22;51601;51.356;12.458;2022-12-18T12:41:56;-2.60;91.10
65034;DHT22;51601;51.356;12.458;2022-12-18T12:46:34;-2.70;90.70
65034;DHT22;51601;51.356;12.458;2022-12-18T12:50:50;-2.90;90.30
65034;DHT22;51601;51.356;12.458;2022-12-18T12:55:07;-3.00;90.40
65034;DHT22;51601;51.356;12.458;2022-12-18T12:59:36;-3.10;90.60
65034;DHT22;51601;51.356;12.458;2022-12-18T13:04:02;-3.20;90.70
65034;DHT22;51601;51.356;12.458;2022-12-18T13:08:23;-3.20;90.90
65034;DHT22;51601;51.356;12.458;2022-12-18T13:12:52;-3.20;91.10
65034;DHT22;51601;51.356;12.458;2022-12-18T13:17:30;-3.30;91.20
65034;DHT22;51601;51.356;12.458;2022-12-18T13:21:53;-3.20;91.40
65034;DHT22;51601;51.356;12.458;2022-12-18T13:26:32;-3.20;91.50
65034;DHT22;51601;51.356;12.458;2022-12-18T13:30:55;-3.20;91.60
65034;DHT22;51601;51.356;12.458;2022-12-18T13:35:38;-3.20;91.70
65034;DHT22;51601;51.356;12.458;2022-12-18T13:39:54;-3.20;91.80
65034;DHT22;51601;51.356;12.458;2022-12-18T13:44:12;-3.30;91.70
65034;DHT22;51601;51.356;12.458;2022-12-18T13:48:30;-3.30;91.60
65034;DHT22;51601;51.356;12.458;2022-12-18T13:52:45;-3.40;91.60
65034;DHT22;51601;51.356;12.458;2022-12-18T13:57:01;-3.40;91.60
65034;DHT22;51601;51.356;12.458;2022-12-18T14:01:22;-3.50;91.60
65034;DHT22;51601;51.356;12.458;2022-12-18T14:05:37;-3.60;91.60
65034;DHT22;51601;51.356;12.458;2022-12-18T14:09:57;-3.70;91.80
65034;DHT22;51601;51.356;12.458;2022-12-18T14:14:32;-3.90;92.10
65034;DHT22;51601;51.356;12.458;2022-12-18T14:18:49;-4.00;92.30
65034;DHT22;51601;51.356;12.458;2022-12-18T14:23:27;-4.00;92.50
65034;DHT22;51601;51.356;12.458;2022-12-18T14:27:43;-4.20;92.60
65034;DHT22;51601;51.356;12.458;2022-12-18T14:32:11;-4.30;92.80
65034;DHT22;51601;51.356;12.458;2022-12-18T14:36:29;-4.30;93.00
65034;DHT22;51601;51.356;12.458;2022-12-18T14:40:44;-4.40;93.10
65034;DHT22;51601;51.356;12.458;2022-12-18T14:45:32;-4.50;93.10
65034;DHT22;51601;51.356;12.458;2022-12-18T14:49:55;-4.70;93.20
65034;DHT22;51601;51.356;12.458;2022-12-18T14:54:16;-4.80;93.40
65034;DHT22;51601;51.356;12.458;2022-12-18T14:58:30;-4.90;93.60
65034;DHT22;51601;51.356;12.458;2022-12-18T15:02:46;-5.00;93.80
65034;DHT22;51601;51.356;12.458;2022-12-18T15:07:12;-5.00;94.00
65034;DHT22;51601;51.356;12.458;2022-12-18T15:11:29;-5.10;94.10
65034;DHT22;51601;51.356;12.458;2022-12-18T15:15:49;-5.20;94.30
65034;DHT22;51601;51.356;12.458;2022-12-18T15:20:09;-5.30;94.60
65034;DHT22;51601;51.356;12.458;2022-12-18T15:24:29;-5.40;94.80
65034;DHT22;51601;51.356;12.458;2022-12-18T15:28:45;-5.40;95.00
65034;DHT22;51601;51.356;12.458;2022-12-18T15:33:20;-5.40;95.20
65034;DHT22;51601;51.356;12.458;2022-12-18T15:37:35;-5.50;95.40
65034;DHT22;51601;51.356;12.458;2022-12-18T15:41:57;-5.50;95.70
65034;DHT22;51601;51.356;12.458;2022-12-18T15:46:43;-5.50;95.80
65034;DHT22;51601;51.356;12.458;2022-12-18T15:50:57;-5.50;96.00
65034;DHT22;51601;51.356;12.458;2022-12-18T15:55:12;-5.50;96.10
65034;DHT22;51601;51.356;12.458;2022-12-18T15:59:45;-5.60;96.20
65034;DHT22;51601;51.356;12.458;2022-12-18T16:03:59;-5.50;96.30
65034;DHT22;51601;51.356;12.458;2022-12-18T16:08:13;-5.60;96.40
65034;DHT22;51601;51.356;12.458;2022-12-18T16:12:27;-5.60;96.40
65034;DHT22;51601;51.356;12.458;2022-12-18T16:16:43;-5.60;96.40
65034;DHT22;51601;51.356;12.458;2022-12-18T16:20:56;-5.60;96.50
65034;DHT22;51601;51.356;12.458;2022-12-18T16:25:18;-5.60;96.60
65034;DHT22;51601;51.356;12.458;2022-12-18T16:29:35;-5.60;96.50
65034;DHT22;51601;51.356;12.458;2022-12-18T16:34:09;-5.70;96.60
65034;DHT22;51601;51.356;12.458;2022-12-18T16:38:23;-5.60;96.80
65034;DHT22;51601;51.356;12.458;2022-12-18T16:42:37;-5.60;96.80
65034;DHT22;51601;51.356;12.458;2022-12-18T16:46:52;-5.60;96.80
65034;DHT22;51601;51.356;12.458;2022-12-18T16:51:07;-5.60;97.00
65034;DHT22;51601;51.356;12.458;2022-12-18T16:55:22;-5.60;97.10
65034;DHT22;51601;51.356;12.458;2022-12-18T16:59:35;-5.50;97.10
65034;DHT22;51601;51.356;12.458;2022-12-18T17:03:53;-5.50;97.20
65034;DHT22;51601;51.356;12.458;2022-12-18T17:08:08;-5.50;97.20
65034;DHT22;51601;51.356;12.458;2022-12-18T17:12:22;-5.40;97.10
65034;DHT22;51601;51.356;12.458;2022-12-18T17:16:36;-5.40;96.90
65034;DHT22;51601;51.356;12.458;2022-12-18T17:20:51;-5.30;96.70
65034;DHT22;51601;51.356;12.458;2022-12-18T17:25:08;-5.30;96.50
65034;DHT22;51601;51.356;12.458;2022-12-18T17:29:21;-5.20;96.40
65034;DHT22;51601;51.356;12.458;2022-12-18T17:33:36;-5.20;96.10
65034;DHT22;51601;51.356;12.458;2022-12-18T17:37:51;-5.10;96.00
65034;DHT22;51601;51.356;12.458;2022-12-18T17:42:06;-5.10;95.80
65034;DHT22;51601;51.356;12.458;2022-12-18T17:46:28;-5.10;95.70
65034;DHT22;51601;51.356;12.458;2022-12-18T17:50:42;-5.00;95.60
65034;DHT22;51601;51.356;12.458;2022-12-18T17:54:57;-4.90;95.50
65034;DHT22;51601;51.356;12.458;2022-12-18T17:59:15;-4.80;95.40
65034;DHT22;51601;51.356;12.458;2022-12-18T18:03:30;-4.80;95.30
65034;DHT22;51601;51.356;12.458;2022-12-18T18:07:46;-4.80;95.20
65034;DHT22;51601;51.356;12.458;2022-12-18T18:12:03;-4.70;95.20
65034;DHT22;51601;51.356;12.458;2022-12-18T18:16:38;-4.70;95.20
65034;DHT22;51601;51.356;12.458;2022-12-18T18:20:52;-4.60;95.10
65034;DHT22;51601;51.356;12.458;2022-12-18T18:25:06;-4.50;95.10
65034;DHT22;51601;51.356;12.458;2022-12-18T18:29:24;-4.40;95.10
65034;DHT22;51601;51.356;12.458;2022-12-18T18:33:40;-4.30;94.90
65034;DHT22;51601;51.356;12.458;2022-12-18T18:37:55;-4.30;94.70
65034;DHT22;51601;51.356;12.458;2022-12-18T18:42:10;-4.20;94.40
65034;DHT22;51601;51.356;12.458;2022-12-18T18:46:23;-4.20;94.10
65034;DHT22;51601;51.356;12.458;2022-12-18T18:50:39;-4.20;93.80
65034;DHT22;51601;51.356;12.458;2022-12-18T18:54:55;-4.20;93.70
65034;DHT22;51601;51.356;12.458;2022-12-18T18:59:29;-4.20;93.50
65034;DHT22;51601;51.356;12.458;2022-12-18T19:03:44;-4.20;93.40
65034;DHT22;51601;51.356;12.458;2022-12-18T19:07:59;-4.10;93.20
65034;DHT22;51601;51.356;12.458;2022-12-18T19:12:13;-4.10;93.20
65034;DHT22;51601;51.356;12.458;2022-12-18T19:16:44;-4.10;93.10
65034;DHT22;51601;51.356;12.458;2022-12-18T19:21:00;-4.10;93.10
65034;DHT22;51601;51.356;12.458;2022-12-18T19:25:15;-4.00;92.90
65034;DHT22;51601;51.356;12.458;2022-12-18T19:29:30;-4.00;92.90
65034;DHT22;51601;51.356;12.458;2022-12-18T19:33:45;-4.00;92.80
65034;DHT22;51601;51.356;12.458;2022-12-18T19:38:00;-4.00;92.70
65034;DHT22;51601;51.356;12.458;2022-12-18T19:42:15;-4.00;92.60
65034;DHT22;51601;51.356;12.458;2022-12-18T19:46:38;-4.00;92.60
65034;DHT22;51601;51.356;12.458;2022-12-18T19:50:53;-4.00;92.80
65034;DHT22;51601;51.356;12.458;2022-12-18T19:55:08;-4.00;92.80
65034;DHT22;51601;51.356;12.458;2022-12-18T19:59:23;-4.00;92.90
65034;DHT22;51601;51.356;12.458;2022-12-18T20:03:37;-4.00;93.10
65034;DHT22;51601;51.356;12.458;2022-12-18T20:07:52;-4.00;93.30
65034;DHT22;51601;51.356;12.458;2022-12-18T20:12:06;-4.00;93.40
65034;DHT22;51601;51.356;12.458;2022-12-18T20:16:21;-3.90;93.40
65034;DHT22;51601;51.356;12.458;2022-12-18T20:20:35;-3.90;93.40
65034;DHT22;51601;51.356;12.458;2022-12-18T20:24:50;-3.80;93.40
65034;DHT22;51601;51.356;12.458;2022-12-18T20:29:03;-3.80;93.40
65034;DHT22;51601;51.356;12.458;2022-12-18T20:33:18;-3.80;93.40
65034;DHT22;51601;51.356;12.458;2022-12-18T20:37:32;-3.80;93.40
65034;DHT22;51601;51.356;12.458;2022-12-18T20:41:48;-3.80;93.50
65034;DHT22;51601;51.356;12.458;2022-12-18T20:46:04;-3.70;93.70
65034;DHT22;51601;51.356;12.458;2022-12-18T20:50:22;-3.70;93.80
65034;DHT22;51601;51.356;12.458;2022-12-18T20:54:36;-3.70;93.90
65034;DHT22;51601;51.356;12.458;2022-12-18T20:58:49;-3.70;93.90
65034;DHT22;51601;51.356;12.458;2022-12-18T21:03:06;-3.60;93.90
65034;DHT22;51601;51.356;12.458;2022-12-18T21:07:21;-3.60;94.00
65034;DHT22;51601;51.356;12.458;2022-12-18T21:11:35;-3.60;94.20
65034;DHT22;51601;51.356;12.458;2022-12-18T21:16:07;-3.50;94.20
65034;DHT22;51601;51.356;12.458;2022-12-18T21:20:22;-3.40;94.30
65034;DHT22;51601;51.356;12.458;2022-12-18T21:24:37;-3.40;94.20
65034;DHT22;51601;51.356;12.458;2022-12-18T21:28:52;-3.40;93.90
65034;DHT22;51601;51.356;12.458;2022-12-18T21:33:07;-3.40;93.80
65034;DHT22;51601;51.356;12.458;2022-12-18T21:37:21;-3.40;93.70
65034;DHT22;51601;51.356;12.458;2022-12-18T21:41:36;-3.40;93.80
65034;DHT22;51601;51.356;12.458;2022-12-18T21:46:08;-3.30;94.00
65034;DHT22;51601;51.356;12.458;2022-12-18T21:50:21;-3.30;94.10
65034;DHT22;51601;51.356;12.458;2022-12-18T21:54:35;-3.30;94.00
65034;DHT22;51601;51.356;12.458;2022-12-18T21:58:50;-3.30;93.80
65034;DHT22;51601;51.356;12.458;2022-12-18T22:03:08;-3.30;93.70
65034;DHT22;51601;51.356;12.458;2022-12-18T22:07:30;-3.30;93.60
65034;DHT22;51601;51.356;12.458;2022-12-18T22:11:44;-3.20;93.40
65034;DHT22;51601;51.356;12.458;2022-12-18T22:16:00;-3.30;93.20
65034;DHT22;51601;51.356;12.458;2022-12-18T22:20:13;-3.20;93.00
65034;DHT22;51601;51.356;12.458;2022-12-18T22:24:27;-3.20;92.90
65034;DHT22;51601;51.356;12.458;2022-12-18T22:28:41;-3.20;92.80
65034;DHT22;51601;51.356;12.458;2022-12-18T22:33:14;-3.10;92.70
65034;DHT22;51601;51.356;12.458;2022-12-18T22:37:27;-3.10;92.40
65034;DHT22;51601;51.356;12.458;2022-12-18T22:41:42;-3.10;92.00
65034;DHT22;51601;51.356;12.458;2022-12-18T22:45:56;-3.10;91.80
65034;DHT22;51601;51.356;12.458;2022-12-18T22:50:15;-3.20;91.80
65034;DHT22;51601;51.356;12.458;2022-12-18T22:54:29;-3.10;92.00
65034;DHT22;51601;51.356;12.458;2022-12-18T22:58:44;-3.10;92.20
65034;DHT22;51601;51.356;12.458;2022-12-18T23:02:59;-3.00;92.20
65034;DHT22;51601;51.356;12.458;2022-12-18T23:07:15;-3.00;92.00
65034;DHT22;51601;51.356;12.458;2022-12-18T23:11:28;-3.00;91.80
65034;DHT22;51601;51.356;12.458;2022-12-18T23:15:42;-3.10;91.80
65034;DHT22;51601;51.356;12.458;2022-12-18T23:19:56;-3.10;91.90
65034;DHT22;51601;51.356;12.458;2022-12-18T23:24:11;-3.00;91.80
65034;DHT22;51601;51.356;12.458;2022-12-18T23:28:24;-3.00;91.70
65034;DHT22;51601;51.356;12.458;2022-12-18T23:32:40;-3.00;91.70
65034;DHT22;51601;51.356;12.458;2022-12-18T23:36:54;-3.00;91.70
65034;DHT22;51601;51.356;12.458;2022-12-18T23:41:10;-3.00;91.70
65034;DHT22;51601;51.356;12.458;2022-12-18T23:45:24;-3.00;91.50
65034;DHT22;51601;51.356;12.458;2022-12-18T23:49:38;-3.00;91.50
65034;DHT22;51601;51.356;12.458;2022-12-18T23:53:57;-3.00;91.50
65034;DHT22;51601;51.356;12.458;2022-12-18T23:58:16;-3.00;91.50
